createdAt,value
2018-12-04T00:03:56.855Z,83.20
2018-12-04T00:06:25.114Z,83.70
2018-12-04T00:08:53.483Z,83.10
2018-12-04T00:11:22.044Z,83.00
2018-12-04T00:13:51.802Z,83.00
2018-12-04T00:16:20.659Z,82.70
2018-12-04T00:18:49.269Z,83.40
2018-12-04T00:21:18.141Z,83.60
2018-12-04T00:23:46.474Z,83.80
2018-12-04T00:26:15.263Z,83.90
2018-12-04T00:28:44.214Z,83.80
2018-12-04T00:31:12.767Z,84.40
2018-12-04T00:33:41.385Z,84.40
2018-12-04T00:36:09.692Z,84.50
2018-12-04T00:38:38.078Z,83.70
2018-12-04T00:41:06.380Z,82.90
2018-12-04T00:43:34.876Z,83.40
2018-12-04T00:46:03.185Z,83.30
2018-12-04T00:48:31.473Z,83.20
2018-12-04T00:50:59.747Z,82.70
2018-12-04T00:53:28.020Z,83.10
2018-12-04T00:55:56.323Z,82.40
2018-12-04T00:58:24.596Z,82.20
2018-12-04T01:00:52.858Z,82.70
2018-12-04T01:03:21.583Z,81.50
2018-12-04T01:05:50.239Z,82.20
2018-12-04T01:08:18.574Z,81.90
2018-12-04T01:10:47.363Z,82.50
2018-12-04T01:13:15.888Z,81.30
2018-12-04T01:15:44.152Z,82.10
2018-12-04T01:18:12.549Z,80.50
2018-12-04T01:20:41.039Z,80.40
2018-12-04T01:23:09.308Z,80.00
2018-12-04T01:25:37.571Z,79.80
2018-12-04T01:28:05.856Z,79.50
2018-12-04T01:30:34.133Z,79.00
2018-12-04T01:35:31.149Z,79.20
2018-12-04T01:37:59.423Z,79.40
2018-12-04T01:40:27.743Z,79.90
2018-12-04T01:42:56.074Z,80.50
2018-12-04T01:45:24.359Z,80.90
2018-12-04T01:47:53.413Z,80.30
2018-12-04T01:50:21.731Z,80.90
2018-12-04T01:52:49.979Z,81.20
2018-12-04T01:55:18.316Z,80.90
2018-12-04T01:57:46.631Z,81.60
2018-12-04T02:00:15.073Z,81.60
2018-12-04T02:02:43.351Z,81.40
2018-12-04T02:05:12.004Z,80.90
2018-12-04T02:07:40.329Z,81.00
2018-12-04T02:10:08.834Z,80.90
2018-12-04T02:15:05.644Z,80.30
2018-12-04T02:17:33.948Z,80.00
2018-12-04T02:20:02.347Z,80.30
2018-12-04T02:22:30.699Z,80.20
2018-12-04T02:24:59.546Z,80.90
2018-12-04T02:27:28.222Z,80.20
2018-12-04T02:29:56.813Z,80.30
2018-12-04T02:32:25.062Z,79.80
2018-12-04T02:34:54.031Z,79.90
2018-12-04T02:37:22.306Z,78.80
2018-12-04T02:39:50.652Z,79.30
2018-12-04T02:47:33.562Z,78.10
2018-12-04T02:50:02.168Z,77.50
2018-12-04T02:52:31.867Z,78.00
2018-12-04T02:55:00.657Z,77.60
2018-12-04T02:59:57.864Z,77.10
2018-12-04T03:02:26.260Z,78.40
2018-12-04T03:04:55.747Z,78.70
2018-12-04T03:07:24.019Z,78.20
2018-12-04T03:09:52.314Z,78.30
2018-12-04T03:12:20.963Z,78.10
2018-12-04T03:14:49.546Z,78.10
2018-12-04T03:17:18.763Z,78.30
2018-12-04T03:19:47.129Z,77.70
2018-12-04T03:22:15.744Z,77.10
2018-12-04T03:24:44.319Z,77.10
2018-12-04T03:27:12.607Z,76.60
2018-12-04T03:29:40.858Z,76.10
2018-12-04T03:34:54.930Z,76.40
2018-12-04T03:37:23.294Z,77.00
2018-12-04T03:39:51.559Z,76.50
2018-12-04T03:42:21.003Z,77.00
2018-12-04T03:44:49.274Z,76.70
2018-12-04T03:47:17.830Z,77.40
2018-12-04T03:49:46.155Z,76.90
2018-12-04T03:52:14.742Z,76.80
2018-12-04T03:57:22.982Z,76.30
2018-12-04T03:59:51.280Z,76.60
2018-12-04T04:02:19.548Z,76.70
2018-12-04T04:04:47.937Z,76.80
2018-12-04T04:07:16.375Z,77.60
2018-12-04T04:09:44.647Z,78.00
2018-12-04T04:12:13.276Z,78.90
2018-12-04T04:14:41.607Z,79.60
2018-12-04T04:17:09.909Z,79.60
2018-12-04T04:19:38.528Z,79.00
2018-12-04T04:22:07.154Z,79.60
2018-12-04T04:24:36.526Z,80.20
2018-12-04T04:27:05.398Z,80.80
2018-12-04T04:29:33.750Z,81.10
2018-12-04T04:32:02.043Z,81.60
2018-12-04T04:36:58.987Z,80.20
2018-12-04T04:39:27.287Z,80.20
2018-12-04T04:41:55.612Z,80.20
2018-12-04T04:46:52.175Z,80.20
2018-12-04T04:49:20.785Z,80.70
2018-12-04T04:51:49.262Z,80.20
2018-12-04T04:54:19.888Z,82.30
2018-12-04T04:56:48.177Z,82.50
2018-12-04T04:59:16.781Z,82.10
2018-12-04T05:01:45.671Z,82.60
2018-12-04T05:04:14.250Z,83.70
2018-12-04T05:06:42.533Z,83.70
2018-12-04T05:09:11.227Z,84.10
2018-12-04T05:11:39.523Z,84.20
2018-12-04T05:14:07.798Z,84.20
2018-12-04T05:16:36.092Z,85.00
2018-12-04T05:24:01.578Z,84.40
2018-12-04T05:26:30.277Z,84.70
2018-12-04T05:28:58.632Z,84.20
2018-12-04T05:33:55.384Z,85.00
2018-12-04T05:38:53.070Z,84.10
2018-12-04T05:43:49.617Z,83.30
2018-12-04T05:46:17.927Z,83.20
2018-12-04T05:48:46.863Z,82.90
2018-12-04T05:51:15.160Z,83.40
2018-12-04T05:53:43.781Z,83.70
2018-12-04T05:56:13.214Z,85.40
2018-12-04T05:58:41.492Z,84.80
2018-12-04T06:01:09.794Z,82.10
2018-12-04T06:03:38.462Z,82.00
2018-12-04T06:06:06.769Z,82.90
2018-12-04T06:08:35.513Z,82.80
2018-12-04T06:11:03.935Z,81.40
2018-12-04T06:13:32.229Z,81.60
2018-12-04T06:16:00.699Z,81.00
2018-12-04T06:18:29.010Z,78.60
2018-12-04T06:23:25.795Z,79.30
2018-12-04T06:25:54.583Z,79.80
2018-12-04T06:28:22.961Z,78.80
2018-12-04T06:30:51.238Z,79.20
2018-12-04T06:33:19.513Z,79.10
2018-12-04T06:35:48.202Z,79.10
2018-12-04T06:38:16.472Z,80.10
2018-12-04T06:40:44.870Z,79.00
2018-12-04T06:43:13.205Z,79.40
2018-12-04T06:45:42.330Z,80.00
2018-12-04T06:48:10.611Z,76.70
2018-12-04T06:50:39.234Z,78.50
2018-12-04T06:53:07.635Z,79.00
2018-12-04T06:55:36.055Z,78.30
2018-12-04T06:58:04.726Z,78.50
2018-12-04T07:00:33.070Z,78.50
2018-12-04T07:03:01.685Z,79.10
2018-12-04T07:05:29.963Z,78.80
2018-12-04T07:07:58.341Z,79.10
2018-12-04T07:10:26.679Z,79.40
2018-12-04T07:12:55.180Z,77.80
2018-12-04T07:15:24.089Z,78.40
2018-12-04T07:17:52.497Z,78.70
2018-12-04T07:20:21.020Z,77.20
2018-12-04T07:22:49.330Z,77.90
2018-12-04T07:25:17.661Z,77.00
2018-12-04T07:27:45.964Z,76.70
2018-12-04T07:30:14.500Z,77.30
2018-12-04T07:32:43.274Z,77.00
2018-12-04T07:35:11.524Z,77.80
2018-12-04T07:37:40.121Z,77.50
2018-12-04T07:40:09.032Z,76.50
2018-12-04T07:42:37.404Z,76.90
2018-12-04T07:47:34.774Z,76.70
2018-12-04T07:50:03.376Z,76.30
2018-12-04T07:52:31.743Z,76.90
2018-12-04T07:55:00.117Z,75.60
2018-12-04T07:57:29.210Z,75.60
2018-12-04T07:59:57.514Z,75.40
2018-12-04T08:02:26.178Z,75.00
2018-12-04T08:04:54.481Z,74.30
2018-12-04T08:07:22.754Z,74.90
2018-12-04T08:09:51.783Z,75.80
2018-12-04T08:12:20.111Z,75.60
2018-12-04T08:14:48.721Z,75.10
2018-12-04T08:17:17.226Z,75.70
2018-12-04T08:19:45.802Z,75.20
2018-12-04T08:22:14.111Z,75.70
2018-12-04T08:27:16.064Z,73.70
2018-12-04T08:29:44.496Z,73.30
2018-12-04T08:32:13.871Z,73.00
2018-12-04T08:34:42.155Z,72.90
2018-12-04T08:37:11.010Z,72.40
2018-12-04T08:39:39.315Z,72.80
2018-12-04T08:42:07.899Z,72.40
2018-12-04T08:44:36.205Z,72.90
2018-12-04T08:47:04.538Z,73.10
2018-12-04T08:49:33.062Z,72.50
2018-12-04T08:52:01.384Z,72.50
2018-12-04T08:54:29.956Z,71.60
2018-12-04T08:56:58.865Z,72.50
2018-12-04T08:59:27.791Z,70.30
2018-12-04T09:01:56.808Z,70.90
2018-12-04T09:04:25.079Z,70.20
2018-12-04T09:06:53.436Z,70.90
2018-12-04T09:12:00.487Z,68.80
2018-12-04T09:14:28.819Z,69.50
2018-12-04T09:16:57.755Z,69.20
2018-12-04T09:19:26.345Z,68.60
2018-12-04T09:21:55.630Z,68.90
2018-12-04T09:24:30.509Z,68.50
2018-12-04T09:29:23.543Z,67.90
2018-12-04T09:31:53.132Z,68.50
2018-12-04T09:34:22.033Z,68.60
2018-12-04T09:36:50.358Z,68.60
2018-12-04T09:39:18.777Z,68.20
2018-12-04T09:41:47.086Z,68.60
2018-12-04T09:44:15.416Z,68.70
2018-12-04T09:46:43.765Z,67.50
2018-12-04T09:49:12.462Z,68.60
2018-12-04T09:51:41.000Z,67.80
2018-12-04T09:54:09.586Z,67.50
2018-12-04T09:56:39.178Z,67.80
2018-12-04T09:59:07.983Z,64.70
2018-12-04T10:01:37.169Z,64.80
2018-12-04T10:04:05.866Z,66.80
2018-12-04T10:06:34.455Z,65.80
2018-12-04T10:09:05.167Z,65.20
2018-12-04T10:11:33.445Z,65.80
2018-12-04T10:14:01.825Z,64.20
2018-12-04T10:16:30.123Z,64.90
2018-12-04T10:18:58.908Z,65.30
2018-12-04T10:21:27.206Z,64.70
2018-12-04T10:23:55.680Z,64.50
2018-12-04T10:26:25.061Z,64.90
2018-12-04T10:28:53.624Z,65.70
2018-12-04T10:31:21.981Z,64.90
2018-12-04T10:33:50.303Z,65.20
2018-12-04T10:36:18.790Z,63.20
2018-12-04T10:38:47.091Z,64.50
2018-12-04T10:41:15.407Z,64.80
2018-12-04T10:43:44.049Z,64.00
2018-12-04T10:46:12.378Z,63.60
2018-12-04T10:48:40.716Z,64.70
2018-12-04T10:51:09.311Z,65.20
2018-12-04T10:53:37.596Z,66.00
2018-12-04T10:56:06.691Z,68.90
2018-12-04T10:58:35.638Z,69.60
2018-12-04T11:01:09.573Z,70.20
2018-12-04T11:03:38.489Z,71.70
2018-12-04T11:06:07.356Z,71.00
2018-12-04T11:08:36.139Z,67.00
2018-12-04T11:13:33.609Z,67.70
2018-12-04T11:16:01.925Z,68.20
2018-12-04T11:18:30.949Z,67.90
2018-12-04T11:20:59.693Z,67.40
2018-12-04T11:23:28.606Z,66.90
2018-12-04T11:25:56.947Z,66.90
2018-12-04T11:28:25.280Z,68.10
2018-12-04T11:30:53.672Z,65.80
2018-12-04T11:33:21.991Z,66.20
2018-12-04T11:35:50.302Z,65.10
2018-12-04T11:38:20.508Z,65.30
2018-12-04T11:40:48.843Z,65.80
2018-12-04T11:43:18.219Z,66.30
2018-12-04T11:45:46.774Z,66.10
2018-12-04T11:48:15.998Z,66.70
2018-12-04T11:50:44.342Z,65.60
2018-12-04T11:53:12.682Z,66.10
2018-12-04T11:55:41.718Z,66.90
2018-12-04T11:58:09.977Z,67.50
2018-12-04T12:00:39.445Z,66.80
2018-12-04T12:03:08.199Z,65.80
2018-12-04T12:05:36.509Z,66.00
2018-12-04T12:08:06.944Z,66.70
2018-12-04T12:10:35.325Z,67.20
2018-12-04T12:15:32.113Z,69.00
2018-12-04T12:20:29.044Z,70.10
2018-12-04T12:22:58.039Z,70.20
2018-12-04T12:27:55.012Z,70.20
2018-12-04T12:32:51.930Z,72.10
2018-12-04T12:35:20.271Z,72.00
2018-12-04T12:37:48.705Z,71.90
2018-12-04T12:40:17.510Z,73.10
2018-12-04T12:42:46.221Z,73.60
2018-12-04T12:45:14.647Z,73.30
2018-12-04T12:47:42.980Z,75.20
2018-12-04T12:50:11.328Z,75.90
2018-12-04T12:52:39.650Z,76.50
2018-12-04T12:55:08.058Z,74.70
2018-12-04T12:57:36.638Z,74.80
2018-12-04T13:00:07.424Z,75.10
2018-12-04T13:02:36.070Z,75.80
2018-12-04T13:05:04.901Z,77.00
2018-12-04T13:07:33.209Z,74.80
2018-12-04T13:10:01.517Z,74.40
2018-12-04T13:14:58.728Z,73.10
2018-12-04T13:17:27.067Z,73.50
2018-12-04T13:19:55.866Z,73.60
2018-12-04T13:22:24.726Z,73.30
2018-12-04T13:24:53.651Z,73.70
2018-12-04T13:27:22.339Z,74.80
2018-12-04T13:29:51.179Z,75.10
2018-12-04T13:32:19.780Z,75.70
2018-12-04T13:34:48.107Z,75.20
2018-12-04T13:37:16.461Z,75.60
2018-12-04T13:39:44.742Z,75.30
2018-12-04T13:42:13.295Z,74.80
2018-12-04T13:44:41.894Z,76.70
2018-12-04T13:47:10.594Z,77.80
2018-12-04T13:49:38.995Z,76.80
2018-12-04T13:52:07.977Z,77.50
2018-12-04T13:54:37.376Z,79.10
2018-12-04T13:57:06.542Z,79.60
2018-12-04T13:59:35.015Z,80.30
2018-12-04T14:02:03.720Z,81.10
2018-12-04T14:04:32.034Z,81.90
2018-12-04T14:07:00.476Z,82.10
2018-12-04T14:09:29.155Z,82.00
2018-12-04T14:11:57.531Z,80.80
2018-12-04T14:16:55.831Z,77.50
2018-12-04T14:19:24.681Z,76.90
2018-12-04T14:21:53.342Z,78.00
2018-12-04T14:24:22.550Z,79.30
2018-12-04T14:26:51.486Z,79.90
2018-12-04T14:29:20.168Z,79.10
2018-12-04T14:31:49.118Z,75.30
2018-12-04T14:34:19.185Z,76.20
2018-12-04T14:36:47.653Z,78.30
2018-12-04T14:39:16.285Z,77.60
2018-12-04T14:41:44.607Z,79.40
2018-12-04T14:44:13.274Z,80.30
2018-12-04T14:46:42.009Z,80.10
2018-12-04T14:49:10.993Z,80.70
2018-12-04T14:51:39.273Z,81.50
2018-12-04T14:54:07.949Z,81.90
2018-12-04T14:56:36.686Z,79.50
2018-12-04T14:59:05.069Z,80.20
2018-12-04T15:01:33.902Z,80.70
2018-12-04T15:04:02.583Z,81.50
2018-12-04T15:06:30.907Z,80.10
2018-12-04T15:08:59.279Z,80.00
2018-12-04T15:11:31.310Z,78.60
2018-12-04T15:13:59.898Z,78.30
2018-12-04T15:16:28.627Z,80.00
2018-12-04T15:18:57.122Z,78.20
2018-12-04T15:21:25.430Z,79.00
2018-12-04T15:23:54.278Z,78.30
2018-12-04T15:26:22.779Z,77.70
2018-12-04T15:28:51.390Z,78.30
2018-12-04T15:33:48.354Z,81.50
2018-12-04T15:36:16.830Z,81.90
2018-12-04T15:38:45.560Z,81.70
2018-12-04T15:41:14.263Z,81.20
2018-12-04T15:43:43.299Z,81.60
2018-12-04T15:46:11.834Z,81.60
2018-12-04T15:48:40.600Z,80.20
2018-12-04T15:51:09.428Z,80.90
2018-12-04T15:53:37.768Z,81.40
2018-12-04T15:56:06.450Z,82.30
2018-12-04T15:58:34.752Z,82.00
2018-12-04T16:01:03.091Z,81.50
2018-12-04T16:03:31.657Z,81.70
2018-12-04T16:05:59.970Z,82.20
2018-12-04T16:08:28.354Z,82.80
2018-12-04T16:10:56.854Z,82.60
2018-12-04T16:15:53.575Z,81.80
2018-12-04T16:18:21.945Z,82.30
2018-12-04T16:20:50.823Z,81.50
2018-12-04T16:23:19.165Z,81.50
2018-12-04T16:30:44.483Z,79.10
2018-12-04T16:33:12.905Z,78.40
2018-12-04T16:35:41.454Z,79.10
2018-12-04T16:38:10.130Z,79.50
2018-12-04T16:40:38.853Z,79.70
2018-12-04T16:43:07.535Z,78.70
2018-12-04T16:45:36.221Z,79.10
2018-12-04T16:48:04.592Z,78.90
2018-12-04T16:50:32.887Z,79.60
2018-12-04T16:53:01.530Z,79.20
2018-12-04T16:55:30.619Z,79.00
2018-12-04T16:57:58.954Z,78.70
2018-12-04T17:00:27.244Z,78.70
2018-12-04T17:02:55.570Z,78.30
2018-12-04T17:15:18.928Z,78.30
2018-12-04T17:17:47.278Z,79.00
2018-12-04T17:20:15.596Z,79.10
2018-12-04T17:22:43.935Z,78.90
2018-12-04T17:25:13.222Z,78.70
2018-12-04T17:27:42.435Z,77.90
2018-12-04T17:30:11.648Z,79.00
2018-12-04T17:32:40.183Z,78.90
2018-12-04T17:35:08.527Z,78.40
2018-12-04T17:37:36.859Z,77.90
2018-12-04T17:40:06.201Z,78.40
2018-12-04T17:42:34.882Z,77.70
2018-12-04T17:45:03.819Z,79.50
2018-12-04T17:47:32.193Z,78.50
2018-12-04T17:50:00.450Z,79.20
2018-12-04T17:52:29.090Z,79.20
2018-12-04T17:54:57.315Z,79.20
2018-12-04T17:57:25.869Z,79.00
2018-12-04T17:59:54.123Z,78.80
2018-12-04T18:02:24.790Z,78.70
2018-12-04T18:04:53.150Z,78.60
2018-12-04T18:10:02.755Z,79.00
2018-12-04T18:12:31.217Z,78.60
2018-12-04T18:15:02.347Z,79.30
2018-12-04T18:17:31.069Z,79.30
2018-12-04T18:20:00.179Z,80.30
2018-12-04T18:22:28.901Z,80.00
2018-12-04T18:24:57.298Z,80.60
2018-12-04T18:27:25.691Z,81.40
2018-12-04T18:29:54.141Z,79.10
2018-12-04T18:32:22.959Z,79.80
2018-12-04T18:34:51.690Z,80.40
2018-12-04T18:37:21.905Z,81.00
2018-12-04T18:39:50.875Z,78.20
2018-12-04T18:42:19.178Z,78.10
2018-12-04T18:44:47.740Z,78.90
2018-12-04T18:47:16.240Z,78.70
2018-12-04T18:49:44.488Z,79.50
2018-12-04T18:54:41.734Z,80.20
2018-12-04T18:57:10.530Z,81.10
2018-12-04T18:59:39.678Z,81.10
2018-12-04T19:04:36.992Z,81.00
2018-12-04T19:07:05.675Z,81.50
2018-12-04T19:09:34.270Z,80.90
2018-12-04T19:12:02.538Z,80.00
2018-12-04T19:14:30.824Z,80.10
2018-12-04T19:16:59.678Z,80.70
2018-12-04T19:19:27.999Z,82.20
2018-12-04T19:21:56.270Z,82.70
2018-12-04T19:24:25.351Z,82.20
2018-12-04T19:26:54.044Z,83.30
2018-12-04T19:29:22.910Z,83.70
2018-12-04T19:31:51.230Z,83.70
2018-12-04T19:34:20.909Z,82.70
2018-12-04T19:36:49.731Z,82.20
2018-12-04T19:39:18.318Z,83.00
2018-12-04T19:41:47.894Z,84.10
2018-12-04T19:44:16.514Z,84.90
2018-12-04T19:49:22.663Z,84.60
2018-12-04T19:54:20.431Z,85.00
2018-12-04T19:56:48.690Z,85.70
2018-12-04T19:59:17.252Z,84.90
2018-12-04T20:01:46.402Z,85.20
2018-12-04T20:04:15.939Z,86.10
2018-12-04T20:06:44.767Z,86.30
2018-12-04T20:09:13.706Z,86.80
2018-12-04T20:11:42.587Z,86.70
2018-12-04T20:14:11.324Z,85.90
2018-12-04T20:19:08.996Z,85.90
2018-12-04T20:24:05.697Z,86.50
2018-12-04T20:26:34.877Z,86.00
2018-12-04T20:31:31.681Z,85.30
2018-12-04T20:34:01.808Z,86.10
2018-12-04T20:36:32.146Z,85.00
2018-12-04T20:39:00.687Z,85.70
2018-12-04T20:41:33.136Z,86.10
2018-12-04T20:44:01.513Z,85.00
2018-12-04T20:46:33.782Z,86.10
2018-12-04T20:49:02.385Z,86.00
2018-12-04T20:51:31.034Z,86.50
2018-12-04T20:53:59.449Z,86.00
2018-12-04T20:56:28.895Z,86.60
2018-12-04T20:58:58.149Z,85.80
2018-12-04T21:01:33.134Z,84.90
2018-12-04T21:04:01.742Z,85.00
2018-12-04T21:06:30.143Z,85.20
2018-12-04T21:08:58.702Z,85.30
2018-12-04T21:11:27.308Z,85.80
2018-12-04T21:18:52.495Z,84.40
2018-12-04T21:21:20.766Z,85.60
2018-12-04T21:23:49.480Z,86.10
2018-12-04T21:26:18.119Z,84.40
2018-12-04T21:28:52.147Z,84.90
2018-12-04T21:31:26.418Z,85.40
2018-12-04T21:34:00.468Z,84.60
2018-12-04T21:39:10.914Z,87.40
2018-12-04T21:41:45.692Z,90.60
2018-12-04T21:44:19.788Z,90.80
2018-12-04T21:46:54.509Z,87.90
2018-12-04T21:51:53.264Z,84.20
2018-12-04T21:54:21.790Z,85.00
2018-12-04T21:56:50.348Z,84.60
2018-12-04T21:59:18.803Z,85.20
2018-12-04T22:04:15.858Z,86.70
2018-12-04T22:06:44.865Z,84.80
2018-12-04T22:09:13.249Z,84.20
2018-12-04T22:11:43.484Z,85.60
2018-12-04T22:19:08.703Z,83.90
2018-12-04T22:21:37.081Z,83.80
2018-12-04T22:29:05.607Z,81.20
2018-12-04T22:34:03.917Z,80.90
2018-12-04T22:36:32.803Z,82.20
2018-12-04T22:39:01.323Z,81.90
2018-12-04T22:41:29.900Z,81.80
2018-12-04T22:43:58.753Z,82.60
2018-12-04T22:46:27.359Z,81.80
2018-12-04T22:51:24.008Z,83.60
2018-12-04T22:58:49.930Z,83.40
2018-12-04T23:01:40.670Z,83.90
2018-12-04T23:06:38.336Z,87.30
2018-12-04T23:09:10.213Z,88.30
2018-12-04T23:16:38.785Z,86.90
2018-12-04T23:19:08.601Z,88.40
2018-12-04T23:24:16.564Z,87.80
2018-12-04T23:26:45.254Z,85.50
2018-12-04T23:29:13.610Z,84.50
2018-12-04T23:31:41.965Z,85.00
2018-12-04T23:34:10.669Z,84.40
2018-12-04T23:36:38.966Z,85.00
2018-12-04T23:39:07.787Z,84.30
2018-12-04T23:44:04.622Z,85.40
2018-12-04T23:46:33.293Z,85.60
2018-12-04T23:49:01.618Z,85.40
2018-12-04T23:51:30.234Z,86.00
2018-12-04T23:56:26.741Z,85.70
2018-12-04T23:58:54.798Z,85.70
